Covington, VA

4:11 AM EST on January 27, 2015 (GMT -0500)
Rich Patch Rd between Bensrun Rd and blue Spring Run Rd | Change Station
CLOSE
Current Station
Personal Weather Station
Location: Covington, VA
Elevation: 1604 ft
Nearby Weather Stations

Elev 1604 ft 37.68 °N, 80.07 °W | Updated 11 minutes ago

Mostly Cloudy
Mostly Cloudy
24.6 °F
Feels Like 21 °F
N
3.2
Wind Variable Wind from NNW

Today
High -- | Low -- °F
--% Chance of Precip.
Yesterday
High -- | Low -- °F
Precip. -- in
7:28 AM 5:38 PM
First Quarter, 52% visible
Pressure 29.76 in
Visibility 5.0 miles
Clouds Mostly Cloudy 1800 ft
Overcast 2500 ft
Windchill 21 °F
Dew Point 18 °F
Humidity 75%
Rainfall 0.00 in
Snow Depth Not available.
UV 0 out of 12
Pollen .30 out of 12
Air Quality Not available.
Flu Activity Not available.
METAR KLWB 270855Z AUTO 32004KT 5SM -SN BKN018 OVC025 M05/M09 A2976 RMK AO2 T10511093

More Conditions Fewer Conditions

Pressure 29.76 in
Visibility 5.0 miles
Clouds Mostly Cloudy 1800 ft
Overcast 2500 ft
Windchill 21 °F
Dew Point 18 °F
Humidity 75%
Rainfall 0.00 in
Snow Depth Not available.
UV 0 out of 12
Pollen .30 out of 12
Air Quality Not available.
Flu Activity Not available.
METAR KLWB 270855Z AUTO 32004KT 5SM -SN BKN018 OVC025 M05/M09 A2976 RMK AO2 T10511093

More Conditions Fewer Conditions

10-Day Weather Forecast

Almanac

Astronomy

Jan. 27, 2015 Rise Set
Actual Time
Civil Twilight
Nautical Twilight
Astronomical Twilight
Moon
Length of Visible Light
Length of Day
Tomorrow will be .
, % of the Moon is Illuminated

Today's Extremes

State Highs State Lows

Community

WunderPhotos

Upload Photos

1,790,555 photos uploaded!

WunderBlogs® & News

Nearby

Air Quality

  Air Quality AQ Index Pollutant
Not available.

Snow Depth

Station Depth Elevation

Earthquake Activity

City Distance Mag. Time & Date
Minimum magnitude displayed is 2.5.

Coastal Water Temperatures

Place Temperature

Nearby Weather Stations